createdAt,value
2023-01-30T00:01:31.906Z,51.13
2023-01-30T00:04:35.833Z,51.30
2023-01-30T00:07:41.825Z,51.18
2023-01-30T00:10:46.513Z,50.34
2023-01-30T00:13:54.767Z,50.06
2023-01-30T00:16:59.051Z,51.34
2023-01-30T00:20:07.516Z,51.08
2023-01-30T00:23:13.509Z,50.01
2023-01-30T00:26:19.549Z,50.32
2023-01-30T00:29:27.677Z,50.45
2023-01-30T00:32:34.055Z,49.56
2023-01-30T00:35:45.267Z,50.44
2023-01-30T00:38:51.819Z,49.05
2023-01-30T00:42:18.444Z,49.43
2023-01-30T00:45:45.993Z,49.06
2023-01-30T00:48:51.611Z,48.68
2023-01-30T00:51:57.607Z,47.08
2023-01-30T00:55:01.520Z,48.36
2023-01-30T00:58:10.247Z,46.00
2023-01-30T01:01:16.263Z,45.42
2023-01-30T01:04:20.759Z,45.68
2023-01-30T01:07:24.919Z,44.10
2023-01-30T01:10:31.564Z,43.18
2023-01-30T01:13:37.358Z,42.41
2023-01-30T01:16:45.928Z,42.74
2023-01-30T01:19:51.693Z,39.35
2023-01-30T01:22:58.216Z,38.97
2023-01-30T01:26:04.029Z,36.63
2023-01-30T01:29:16.975Z,35.96
2023-01-30T01:32:23.646Z,35.84
2023-01-30T01:35:29.962Z,34.96
2023-01-30T01:38:36.026Z,34.09
2023-01-30T01:41:42.154Z,33.67
2023-01-30T01:45:15.719Z,32.69
2023-01-30T01:48:37.978Z,32.89
2023-01-30T01:52:09.352Z,33.14
2023-01-30T01:55:21.841Z,32.26
2023-01-30T01:58:37.265Z,32.49
2023-01-30T02:01:52.186Z,33.32
2023-01-30T02:05:03.836Z,33.05
2023-01-30T02:08:14.785Z,31.77
2023-01-30T02:11:23.466Z,31.32
2023-01-30T02:14:30.297Z,32.77
2023-01-30T02:17:39.659Z,32.68
2023-01-30T02:21:03.031Z,31.88
2023-01-30T02:24:45.807Z,32.62
2023-01-30T02:28:13.799Z,32.62
2023-01-30T02:31:23.807Z,33.13
2023-01-30T02:34:35.113Z,33.70
2023-01-30T02:37:56.403Z,33.31
2023-01-30T02:41:20.538Z,33.66
2023-01-30T02:44:41.029Z,34.96
2023-01-30T02:47:51.026Z,34.20
2023-01-30T02:51:08.701Z,34.23
2023-01-30T02:54:21.570Z,34.58
2023-01-30T02:57:28.114Z,34.57
2023-01-30T03:01:04.681Z,35.03
2023-01-30T03:04:45.758Z,35.46
2023-01-30T03:08:05.181Z,35.99
2023-01-30T03:11:12.222Z,37.16
2023-01-30T03:14:31.745Z,37.08
2023-01-30T03:17:37.783Z,37.00
2023-01-30T03:20:45.648Z,36.74
2023-01-30T03:23:53.992Z,36.97
2023-01-30T03:27:11.654Z,37.16
2023-01-30T03:30:23.761Z,37.06
2023-01-30T03:33:32.110Z,37.25
2023-01-30T03:36:38.485Z,37.57
2023-01-30T03:39:53.995Z,37.61
2023-01-30T03:43:00.209Z,38.22
2023-01-30T03:46:07.304Z,38.58
2023-01-30T03:49:16.350Z,38.09
2023-01-30T03:52:26.977Z,37.82
2023-01-30T03:55:35.809Z,39.20
2023-01-30T03:58:42.001Z,39.05
2023-01-30T04:02:02.379Z,39.24
2023-01-30T04:05:08.719Z,38.96
2023-01-30T04:08:15.820Z,39.01
2023-01-30T04:11:23.014Z,38.85
2023-01-30T04:14:27.797Z,37.81
2023-01-30T04:18:06.420Z,37.03
2023-01-30T04:21:26.044Z,37.52
2023-01-30T04:24:31.981Z,38.39
2023-01-30T04:27:37.853Z,37.94
2023-01-30T04:30:57.095Z,37.95
2023-01-30T04:34:17.865Z,38.87
2023-01-30T04:37:23.761Z,38.46
2023-01-30T04:40:28.016Z,38.20
2023-01-30T04:43:35.563Z,38.00
2023-01-30T04:46:57.265Z,38.56
2023-01-30T04:50:03.794Z,38.08
2023-01-30T04:53:10.390Z,38.61
2023-01-30T04:56:16.875Z,38.90
2023-01-30T04:59:23.482Z,38.12
2023-01-30T05:02:30.684Z,38.23
2023-01-30T05:05:35.156Z,38.24
2023-01-30T05:08:45.363Z,38.27
2023-01-30T05:11:53.394Z,38.04
2023-01-30T05:14:59.618Z,38.79
2023-01-30T05:18:05.549Z,38.68
2023-01-30T05:21:33.411Z,37.62
2023-01-30T05:24:39.581Z,37.60
2023-01-30T05:27:45.283Z,37.50
2023-01-30T05:30:51.044Z,37.54
2023-01-30T05:33:56.757Z,38.48
2023-01-30T05:37:05.190Z,37.83
2023-01-30T05:40:12.497Z,37.97
2023-01-30T05:43:18.541Z,38.22
2023-01-30T05:46:24.454Z,37.43
2023-01-30T05:49:30.502Z,37.62
2023-01-30T05:52:36.897Z,37.90
2023-01-30T05:55:44.485Z,38.35
2023-01-30T05:58:56.640Z,38.89
2023-01-30T06:02:05.434Z,38.65
2023-01-30T06:05:13.394Z,38.96
2023-01-30T06:08:19.339Z,38.30
2023-01-30T06:11:25.844Z,38.86
2023-01-30T06:14:31.553Z,38.29
2023-01-30T06:17:37.564Z,38.90
2023-01-30T06:20:42.281Z,38.17
2023-01-30T06:24:09.530Z,38.98
2023-01-30T06:27:27.255Z,38.79
2023-01-30T06:30:32.966Z,39.87
2023-01-30T06:33:38.821Z,39.72
2023-01-30T06:36:45.016Z,39.52
2023-01-30T06:39:52.068Z,38.92
2023-01-30T06:42:57.818Z,39.91
2023-01-30T06:46:04.179Z,39.37
2023-01-30T06:49:11.978Z,39.90
2023-01-30T06:52:22.710Z,41.09
2023-01-30T06:55:29.948Z,40.24
2023-01-30T06:58:44.188Z,39.87
2023-01-30T07:01:50.401Z,40.02
2023-01-30T07:04:59.333Z,39.47
2023-01-30T07:08:07.107Z,39.41
2023-01-30T07:11:12.976Z,38.89
2023-01-30T07:14:19.181Z,39.49
2023-01-30T07:17:30.816Z,39.19
2023-01-30T07:20:44.146Z,39.28
2023-01-30T07:23:55.465Z,39.50
2023-01-30T07:27:01.490Z,39.66
2023-01-30T07:30:07.951Z,39.65
2023-01-30T07:33:13.638Z,40.07
2023-01-30T07:36:19.928Z,39.72
2023-01-30T07:39:25.603Z,39.53
2023-01-30T07:42:31.311Z,40.10
2023-01-30T07:45:43.948Z,40.67
2023-01-30T07:48:49.696Z,41.74
2023-01-30T07:51:55.464Z,42.33
2023-01-30T07:55:01.394Z,43.39
2023-01-30T07:58:09.476Z,44.23
2023-01-30T08:01:15.650Z,42.64
2023-01-30T08:04:21.421Z,43.41
2023-01-30T08:07:27.303Z,43.31
2023-01-30T08:10:32.999Z,43.86
2023-01-30T08:13:39.556Z,44.17
2023-01-30T08:16:45.182Z,44.47
2023-01-30T08:19:51.104Z,43.92
2023-01-30T08:22:57.831Z,44.26
2023-01-30T08:26:04.722Z,43.34
2023-01-30T08:29:09.774Z,43.46
2023-01-30T08:32:18.967Z,44.40
2023-01-30T08:35:25.245Z,44.32
2023-01-30T08:38:33.996Z,44.53
2023-01-30T08:41:46.065Z,45.14
2023-01-30T08:44:51.884Z,45.41
2023-01-30T08:48:02.287Z,46.00
2023-01-30T08:51:06.316Z,45.38
2023-01-30T08:54:13.947Z,46.22
2023-01-30T08:57:21.273Z,47.13
2023-01-30T09:00:28.144Z,46.63
2023-01-30T09:03:37.071Z,46.03
2023-01-30T09:06:42.877Z,46.12
2023-01-30T09:09:49.360Z,46.51
2023-01-30T09:12:55.007Z,45.92
2023-01-30T09:16:00.793Z,45.70
2023-01-30T09:19:06.506Z,46.24
2023-01-30T09:22:14.661Z,45.97
2023-01-30T09:25:20.442Z,46.63
2023-01-30T09:28:27.219Z,46.11
2023-01-30T09:31:31.802Z,45.30
2023-01-30T09:34:38.117Z,45.29
2023-01-30T09:37:51.885Z,45.27
2023-01-30T09:41:20.518Z,46.48
2023-01-30T09:45:00.807Z,47.88
2023-01-30T09:48:33.163Z,47.35
2023-01-30T09:52:32.004Z,47.71
2023-01-30T09:55:42.817Z,48.04
2023-01-30T09:59:04.189Z,49.09
2023-01-30T10:02:45.589Z,48.58
2023-01-30T10:05:59.524Z,49.27
2023-01-30T10:09:15.371Z,49.97
2023-01-30T10:12:29.673Z,48.78
2023-01-30T10:15:40.996Z,48.79
2023-01-30T10:19:01.028Z,47.83
2023-01-30T10:22:37.851Z,47.62
2023-01-30T10:25:49.515Z,47.46
2023-01-30T10:29:31.271Z,47.70
2023-01-30T10:32:47.872Z,47.58
2023-01-30T10:36:19.723Z,49.01
2023-01-30T10:39:54.957Z,48.60
2023-01-30T10:43:21.673Z,49.58
2023-01-30T10:47:11.768Z,49.97
2023-01-30T10:50:24.755Z,48.31
2023-01-30T10:53:46.013Z,48.58
2023-01-30T10:57:04.144Z,49.57
2023-01-30T11:00:50.539Z,48.57
2023-01-30T11:04:17.368Z,49.32
2023-01-30T11:07:25.670Z,49.90
2023-01-30T11:10:33.433Z,49.40
2023-01-30T11:13:39.269Z,48.81
2023-01-30T11:16:52.776Z,48.97
2023-01-30T11:20:11.264Z,48.55
2023-01-30T11:23:30.529Z,48.59
2023-01-30T11:26:47.227Z,47.78
2023-01-30T11:30:11.881Z,47.74
2023-01-30T11:33:21.424Z,49.14
2023-01-30T11:36:34.265Z,49.48
2023-01-30T11:39:53.871Z,48.71
2023-01-30T11:43:04.704Z,48.69
2023-01-30T11:46:15.680Z,48.93
2023-01-30T11:49:47.269Z,48.86
2023-01-30T11:52:51.346Z,49.12
2023-01-30T11:56:05.698Z,50.20
2023-01-30T11:59:31.861Z,50.81
2023-01-30T12:02:39.855Z,50.16
2023-01-30T12:05:49.171Z,49.88
2023-01-30T12:08:57.081Z,50.47
2023-01-30T12:12:03.268Z,50.29
2023-01-30T12:15:24.913Z,50.54
2023-01-30T12:18:38.198Z,50.06
2023-01-30T12:22:11.614Z,51.45
2023-01-30T12:25:33.638Z,50.21
2023-01-30T12:29:05.181Z,49.54
2023-01-30T12:32:21.029Z,50.36
2023-01-30T12:35:34.854Z,50.84
2023-01-30T12:38:57.023Z,51.48
2023-01-30T12:42:01.030Z,50.60
2023-01-30T12:45:21.584Z,50.86
2023-01-30T12:49:10.120Z,50.70
2023-01-30T12:52:43.039Z,50.31
2023-01-30T12:56:14.078Z,51.16
2023-01-30T12:59:56.579Z,50.99
2023-01-30T13:03:06.467Z,50.55
2023-01-30T13:06:24.046Z,50.75
2023-01-30T13:09:50.728Z,51.89
2023-01-30T13:13:23.480Z,51.08
2023-01-30T13:16:39.943Z,51.60
2023-01-30T13:20:07.365Z,50.69
2023-01-30T13:23:45.507Z,50.86
2023-01-30T13:26:54.233Z,51.33
2023-01-30T13:30:02.700Z,51.49
2023-01-30T13:33:15.148Z,50.97
2023-01-30T13:36:27.815Z,50.62
2023-01-30T13:39:58.488Z,49.97
2023-01-30T13:43:11.019Z,50.85
2023-01-30T13:46:27.541Z,50.99
2023-01-30T13:50:24.791Z,51.01
2023-01-30T13:53:40.763Z,51.50
2023-01-30T13:57:02.349Z,52.36
2023-01-30T14:00:26.045Z,52.23
2023-01-30T14:03:32.953Z,52.00
2023-01-30T14:06:40.915Z,51.72
2023-01-30T14:10:10.084Z,52.16
2023-01-30T14:13:18.547Z,51.75
2023-01-30T14:16:25.757Z,52.91
2023-01-30T14:19:39.805Z,51.87
2023-01-30T14:22:59.457Z,51.60
2023-01-30T14:26:05.313Z,50.66
2023-01-30T14:29:12.448Z,50.02
2023-01-30T14:32:21.528Z,49.80
2023-01-30T14:35:33.193Z,50.19
2023-01-30T14:38:41.539Z,51.17
2023-01-30T14:42:21.869Z,49.64
2023-01-30T14:49:29.334Z,49.17
2023-01-30T14:52:42.945Z,50.44
2023-01-30T14:56:01.464Z,51.51
2023-01-30T14:59:18.340Z,51.38
2023-01-30T15:02:31.056Z,52.96
2023-01-30T15:05:45.431Z,52.66
2023-01-30T15:08:51.812Z,53.10
2023-01-30T15:12:37.327Z,53.41
2023-01-30T15:16:04.815Z,51.97
2023-01-30T15:19:37.540Z,51.82
2023-01-30T15:23:13.809Z,51.93
2023-01-30T15:27:02.208Z,52.17
2023-01-30T15:30:20.069Z,51.78
2023-01-30T15:33:32.179Z,52.34
2023-01-30T15:36:39.748Z,52.31
2023-01-30T15:39:46.252Z,51.92
2023-01-30T15:43:13.447Z,52.37
2023-01-30T15:46:44.728Z,53.52
2023-01-30T15:50:06.969Z,56.04
2023-01-30T15:53:16.068Z,55.00
2023-01-30T15:56:25.646Z,54.47
2023-01-30T15:59:36.961Z,54.39
2023-01-30T16:02:45.168Z,53.60
2023-01-30T16:05:53.439Z,52.04
2023-01-30T16:09:19.305Z,52.20
2023-01-30T16:12:31.811Z,52.55
2023-01-30T16:15:55.369Z,52.84
2023-01-30T16:19:03.425Z,53.24
2023-01-30T16:22:20.199Z,53.94
2023-01-30T16:25:35.115Z,54.60
2023-01-30T16:28:41.561Z,53.90
2023-01-30T16:31:49.914Z,54.60
2023-01-30T16:35:29.184Z,53.71
2023-01-30T16:38:45.849Z,53.55
2023-01-30T16:42:02.098Z,53.08
2023-01-30T16:45:14.027Z,52.53
2023-01-30T16:48:31.497Z,51.89
2023-01-30T16:51:38.296Z,51.12
2023-01-30T16:55:06.236Z,51.15
2023-01-30T16:58:18.439Z,52.38
2023-01-30T17:01:36.917Z,53.59
2023-01-30T17:04:44.011Z,52.04
2023-01-30T17:07:53.008Z,52.54
2023-01-30T17:11:03.874Z,52.54
2023-01-30T17:14:32.199Z,52.67
2023-01-30T17:17:39.042Z,52.62
2023-01-30T17:20:48.553Z,52.34
2023-01-30T17:23:58.735Z,51.94
2023-01-30T17:27:05.468Z,53.02
2023-01-30T17:30:19.999Z,52.23
2023-01-30T17:33:27.171Z,52.12
2023-01-30T17:36:32.983Z,53.27
2023-01-30T17:39:38.841Z,52.39
2023-01-30T17:42:44.582Z,52.27
2023-01-30T17:45:52.961Z,53.50
2023-01-30T17:48:57.224Z,52.67
2023-01-30T17:52:03.334Z,52.61
2023-01-30T17:55:13.798Z,52.08
2023-01-30T17:58:20.606Z,51.55
2023-01-30T18:01:24.741Z,51.56
2023-01-30T18:04:30.456Z,51.04
2023-01-30T18:07:37.624Z,51.00
2023-01-30T18:10:43.319Z,51.07
2023-01-30T18:13:49.574Z,50.65
2023-01-30T18:17:00.814Z,50.58
2023-01-30T18:20:07.008Z,49.76
2023-01-30T18:23:12.654Z,50.32
2023-01-30T18:26:20.094Z,50.51
2023-01-30T18:29:26.244Z,50.29
2023-01-30T18:32:35.231Z,50.64
2023-01-30T18:35:41.395Z,51.06
2023-01-30T18:38:47.671Z,50.14
2023-01-30T18:41:53.339Z,50.15
2023-01-30T18:44:59.201Z,49.83
2023-01-30T18:48:05.291Z,49.82
2023-01-30T18:51:21.976Z,49.65
2023-01-30T18:54:28.076Z,50.37
2023-01-30T18:57:34.321Z,51.00
2023-01-30T19:00:38.243Z,51.55
2023-01-30T19:03:43.230Z,51.23
2023-01-30T19:06:48.952Z,51.67
2023-01-30T19:09:54.792Z,52.04
2023-01-30T19:13:19.378Z,52.52
2023-01-30T19:16:28.172Z,53.28
2023-01-30T19:19:33.971Z,52.66
2023-01-30T19:22:38.488Z,50.83
2023-01-30T19:25:46.825Z,49.79
2023-01-30T19:28:52.953Z,49.63
2023-01-30T19:31:58.718Z,50.03
2023-01-30T19:35:04.873Z,50.68
2023-01-30T19:38:11.654Z,51.11
2023-01-30T19:41:25.148Z,50.86
2023-01-30T19:44:30.783Z,51.67
2023-01-30T19:47:36.606Z,52.18
2023-01-30T19:50:43.137Z,52.80
2023-01-30T19:53:54.501Z,53.38
2023-01-30T19:57:02.534Z,53.16
2023-01-30T20:00:11.820Z,53.53
2023-01-30T20:03:20.313Z,53.39
2023-01-30T20:06:27.691Z,52.70
2023-01-30T20:09:34.248Z,52.09
2023-01-30T20:12:39.723Z,52.59
2023-01-30T20:15:45.729Z,53.02
2023-01-30T20:18:56.938Z,52.65
2023-01-30T20:22:07.639Z,52.16
2023-01-30T20:25:13.387Z,52.47
2023-01-30T20:28:20.032Z,51.18
2023-01-30T20:31:26.734Z,50.17
2023-01-30T20:34:34.629Z,50.16
2023-01-30T20:37:40.074Z,50.00
2023-01-30T20:40:48.692Z,51.12
2023-01-30T20:43:58.037Z,50.85
2023-01-30T20:47:04.569Z,51.44
2023-01-30T20:50:14.356Z,52.19
2023-01-30T20:53:21.513Z,52.40
2023-01-30T20:56:31.796Z,51.50
2023-01-30T20:59:38.391Z,51.35
2023-01-30T21:02:46.274Z,51.98
2023-01-30T21:06:00.156Z,52.21
2023-01-30T21:09:07.661Z,50.97
2023-01-30T21:12:14.578Z,49.99
2023-01-30T21:15:20.662Z,50.75
2023-01-30T21:18:29.835Z,50.93
2023-01-30T21:21:37.109Z,51.18
2023-01-30T21:24:43.209Z,50.71
2023-01-30T21:27:48.684Z,50.13
2023-01-30T21:30:55.100Z,49.84
2023-01-30T21:34:01.312Z,50.71
2023-01-30T21:37:25.831Z,50.35
2023-01-30T21:40:49.898Z,50.07
2023-01-30T21:43:56.364Z,50.84
2023-01-30T21:47:02.365Z,50.74
2023-01-30T21:50:09.106Z,50.62
2023-01-30T21:53:16.859Z,50.81
2023-01-30T21:56:24.257Z,50.78
2023-01-30T21:59:34.768Z,51.04
2023-01-30T22:02:41.233Z,51.38
2023-01-30T22:05:58.590Z,52.04
2023-01-30T22:09:11.179Z,52.61
2023-01-30T22:12:25.924Z,52.92
2023-01-30T22:15:44.208Z,52.03
2023-01-30T22:19:01.704Z,51.78
2023-01-30T22:22:27.960Z,51.02
2023-01-30T22:25:41.650Z,51.43
2023-01-30T22:28:58.435Z,51.31
2023-01-30T22:32:09.628Z,51.13
2023-01-30T22:35:21.380Z,51.08
2023-01-30T22:38:33.737Z,51.34
2023-01-30T22:41:44.007Z,51.51
2023-01-30T22:44:57.056Z,51.64
2023-01-30T22:48:06.845Z,51.02
2023-01-30T22:51:24.730Z,51.37
2023-01-30T22:54:30.867Z,50.73
2023-01-30T22:57:37.041Z,51.41
2023-01-30T23:00:43.497Z,52.37
2023-01-30T23:03:55.329Z,52.37
2023-01-30T23:07:01.277Z,51.91
2023-01-30T23:10:07.705Z,51.91
2023-01-30T23:13:17.580Z,52.63
2023-01-30T23:16:32.804Z,54.19
2023-01-30T23:19:38.441Z,54.87
2023-01-30T23:22:51.949Z,53.54
2023-01-30T23:25:57.560Z,53.10
2023-01-30T23:29:09.868Z,53.33
2023-01-30T23:32:16.405Z,53.76
2023-01-30T23:35:20.734Z,54.39
2023-01-30T23:38:28.286Z,54.21
2023-01-30T23:41:37.004Z,52.87
2023-01-30T23:44:43.118Z,53.71
2023-01-30T23:47:48.829Z,52.35
2023-01-30T23:50:54.698Z,52.36
2023-01-30T23:54:01.024Z,52.99
2023-01-30T23:57:06.723Z,53.00
